sensor_id;sensor_type;location;lat;lon;timestamp;P1;durP1;ratioP1;P2;durP2;ratioP2
71104;SDS011;58760;48.716;8.962;2024-02-15T00:00:36;5.35;;;1.40;;
71104;SDS011;58760;48.716;8.962;2024-02-15T00:03:03;5.50;;;1.55;;
71104;SDS011;58760;48.716;8.962;2024-02-15T00:05:34;4.25;;;1.42;;
71104;SDS011;58760;48.716;8.962;2024-02-15T00:08:02;5.82;;;1.55;;
71104;SDS011;58760;48.716;8.962;2024-02-15T00:10:28;4.78;;;1.65;;
71104;SDS011;58760;48.716;8.962;2024-02-15T00:12:54;3.60;;;1.42;;
71104;SDS011;58760;48.716;8.962;2024-02-15T00:15:20;4.07;;;1.50;;
71104;SDS011;58760;48.716;8.962;2024-02-15T00:17:45;6.00;;;1.60;;
71104;SDS011;58760;48.716;8.962;2024-02-15T00:20:14;5.25;;;1.40;;
71104;SDS011;58760;48.716;8.962;2024-02-15T00:22:41;4.65;;;1.60;;
71104;SDS011;58760;48.716;8.962;2024-02-15T00:25:07;4.97;;;1.55;;
71104;SDS011;58760;48.716;8.962;2024-02-15T00:27:35;4.57;;;1.55;;
71104;SDS011;58760;48.716;8.962;2024-02-15T00:32:27;3.15;;;1.42;;
71104;SDS011;58760;48.716;8.962;2024-02-15T00:34:53;4.90;;;1.65;;
71104;SDS011;58760;48.716;8.962;2024-02-15T00:37:19;4.38;;;1.40;;
71104;SDS011;58760;48.716;8.962;2024-02-15T00:42:11;4.30;;;1.70;;
71104;SDS011;58760;48.716;8.962;2024-02-15T00:44:37;4.15;;;1.40;;
71104;SDS011;58760;48.716;8.962;2024-02-15T00:47:03;4.65;;;1.73;;
71104;SDS011;58760;48.716;8.962;2024-02-15T00:49:29;6.20;;;2.00;;
71104;SDS011;58760;48.716;8.962;2024-02-15T00:51:55;4.28;;;1.63;;
71104;SDS011;58760;48.716;8.962;2024-02-15T00:54:20;3.75;;;1.63;;
71104;SDS011;58760;48.716;8.962;2024-02-15T00:56:47;5.70;;;1.90;;
71104;SDS011;58760;48.716;8.962;2024-02-15T00:59:13;3.72;;;1.58;;
71104;SDS011;58760;48.716;8.962;2024-02-15T01:01:40;3.90;;;1.70;;
71104;SDS011;58760;48.716;8.962;2024-02-15T01:04:06;4.82;;;1.80;;
71104;SDS011;58760;48.716;8.962;2024-02-15T01:06:31;4.68;;;1.70;;
71104;SDS011;58760;48.716;8.962;2024-02-15T01:08:58;4.80;;;1.70;;
71104;SDS011;58760;48.716;8.962;2024-02-15T01:11:26;6.03;;;1.77;;
71104;SDS011;58760;48.716;8.962;2024-02-15T01:13:53;4.35;;;1.70;;
71104;SDS011;58760;48.716;8.962;2024-02-15T01:16:21;5.80;;;1.90;;
71104;SDS011;58760;48.716;8.962;2024-02-15T01:18:47;5.95;;;2.00;;
71104;SDS011;58760;48.716;8.962;2024-02-15T01:21:14;6.20;;;2.00;;
71104;SDS011;58760;48.716;8.962;2024-02-15T01:23:40;5.60;;;1.98;;
71104;SDS011;58760;48.716;8.962;2024-02-15T01:26:06;4.07;;;1.65;;
71104;SDS011;58760;48.716;8.962;2024-02-15T01:28:32;6.05;;;2.03;;
71104;SDS011;58760;48.716;8.962;2024-02-15T01:30:57;3.83;;;1.70;;
71104;SDS011;58760;48.716;8.962;2024-02-15T01:33:23;8.65;;;1.90;;
71104;SDS011;58760;48.716;8.962;2024-02-15T01:35:49;4.63;;;1.75;;
71104;SDS011;58760;48.716;8.962;2024-02-15T01:38:15;6.82;;;2.03;;
71104;SDS011;58760;48.716;8.962;2024-02-15T01:40:40;5.40;;;1.90;;
71104;SDS011;58760;48.716;8.962;2024-02-15T01:43:06;4.05;;;1.70;;
71104;SDS011;58760;48.716;8.962;2024-02-15T01:45:32;5.85;;;1.70;;
71104;SDS011;58760;48.716;8.962;2024-02-15T01:47:57;5.82;;;1.70;;
71104;SDS011;58760;48.716;8.962;2024-02-15T01:50:23;4.53;;;1.38;;
71104;SDS011;58760;48.716;8.962;2024-02-15T01:52:52;5.28;;;1.77;;
71104;SDS011;58760;48.716;8.962;2024-02-15T01:55:20;6.43;;;1.73;;
71104;SDS011;58760;48.716;8.962;2024-02-15T01:57:47;6.05;;;1.58;;
71104;SDS011;58760;48.716;8.962;2024-02-15T02:00:15;6.28;;;1.70;;
71104;SDS011;58760;48.716;8.962;2024-02-15T02:02:43;4.88;;;1.52;;
71104;SDS011;58760;48.716;8.962;2024-02-15T02:05:10;6.60;;;1.70;;
71104;SDS011;58760;48.716;8.962;2024-02-15T02:07:36;5.78;;;2.50;;
71104;SDS011;58760;48.716;8.962;2024-02-15T02:10:03;4.22;;;1.65;;
71104;SDS011;58760;48.716;8.962;2024-02-15T02:12:29;6.50;;;1.80;;
71104;SDS011;58760;48.716;8.962;2024-02-15T02:14:56;6.35;;;1.63;;
71104;SDS011;58760;48.716;8.962;2024-02-15T02:17:22;3.88;;;1.38;;
71104;SDS011;58760;48.716;8.962;2024-02-15T02:19:48;5.13;;;1.70;;
71104;SDS011;58760;48.716;8.962;2024-02-15T02:22:18;6.03;;;1.83;;
71104;SDS011;58760;48.716;8.962;2024-02-15T02:25:05;6.95;;;1.80;;
71104;SDS011;58760;48.716;8.962;2024-02-15T02:27:35;5.57;;;1.63;;
71104;SDS011;58760;48.716;8.962;2024-02-15T02:30:05;4.13;;;1.80;;
71104;SDS011;58760;48.716;8.962;2024-02-15T02:32:40;4.80;;;1.58;;
71104;SDS011;58760;48.716;8.962;2024-02-15T02:35:07;4.57;;;1.90;;
71104;SDS011;58760;48.716;8.962;2024-02-15T02:37:33;5.20;;;2.20;;
71104;SDS011;58760;48.716;8.962;2024-02-15T02:40:02;6.28;;;2.08;;
71104;SDS011;58760;48.716;8.962;2024-02-15T02:42:29;4.35;;;1.70;;
71104;SDS011;58760;48.716;8.962;2024-02-15T02:44:55;5.10;;;1.60;;
71104;SDS011;58760;48.716;8.962;2024-02-15T02:47:21;6.32;;;1.70;;
71104;SDS011;58760;48.716;8.962;2024-02-15T02:49:48;5.38;;;1.83;;
71104;SDS011;58760;48.716;8.962;2024-02-15T02:52:14;8.13;;;1.90;;
71104;SDS011;58760;48.716;8.962;2024-02-15T02:54:45;4.18;;;1.63;;
71104;SDS011;58760;48.716;8.962;2024-02-15T02:57:12;6.85;;;1.67;;
71104;SDS011;58760;48.716;8.962;2024-02-15T02:59:40;7.05;;;1.90;;
71104;SDS011;58760;48.716;8.962;2024-02-15T03:02:08;3.38;;;1.50;;
71104;SDS011;58760;48.716;8.962;2024-02-15T03:04:34;5.32;;;1.88;;
71104;SDS011;58760;48.716;8.962;2024-02-15T03:07:00;5.88;;;1.70;;
71104;SDS011;58760;48.716;8.962;2024-02-15T03:09:25;5.10;;;1.88;;
71104;SDS011;58760;48.716;8.962;2024-02-15T03:11:55;5.00;;;1.40;;
71104;SDS011;58760;48.716;8.962;2024-02-15T03:14:22;5.78;;;1.70;;
71104;SDS011;58760;48.716;8.962;2024-02-15T03:16:48;3.95;;;1.45;;
71104;SDS011;58760;48.716;8.962;2024-02-15T03:19:14;5.78;;;1.85;;
71104;SDS011;58760;48.716;8.962;2024-02-15T03:21:45;6.63;;;2.22;;
71104;SDS011;58760;48.716;8.962;2024-02-15T03:24:12;5.72;;;1.80;;
71104;SDS011;58760;48.716;8.962;2024-02-15T03:26:38;5.72;;;1.60;;
71104;SDS011;58760;48.716;8.962;2024-02-15T03:29:05;3.72;;;1.38;;
71104;SDS011;58760;48.716;8.962;2024-02-15T03:31:33;3.92;;;1.45;;
71104;SDS011;58760;48.716;8.962;2024-02-15T03:34:01;4.70;;;1.63;;
71104;SDS011;58760;48.716;8.962;2024-02-15T03:36:30;3.45;;;1.58;;
71104;SDS011;58760;48.716;8.962;2024-02-15T03:38:56;4.60;;;1.45;;
71104;SDS011;58760;48.716;8.962;2024-02-15T03:41:22;6.13;;;1.70;;
71104;SDS011;58760;48.716;8.962;2024-02-15T03:43:48;3.20;;;1.50;;
71104;SDS011;58760;48.716;8.962;2024-02-15T03:46:13;6.50;;;1.90;;
71104;SDS011;58760;48.716;8.962;2024-02-15T03:48:40;4.72;;;1.85;;
71104;SDS011;58760;48.716;8.962;2024-02-15T03:51:09;4.78;;;1.60;;
71104;SDS011;58760;48.716;8.962;2024-02-15T03:53:34;5.53;;;2.00;;
71104;SDS011;58760;48.716;8.962;2024-02-15T03:56:03;7.25;;;1.90;;
71104;SDS011;58760;48.716;8.962;2024-02-15T04:00:55;5.57;;;2.03;;
71104;SDS011;58760;48.716;8.962;2024-02-15T04:03:22;5.82;;;2.10;;
71104;SDS011;58760;48.716;8.962;2024-02-15T04:05:47;4.68;;;1.83;;
71104;SDS011;58760;48.716;8.962;2024-02-15T04:08:14;5.35;;;1.80;;
71104;SDS011;58760;48.716;8.962;2024-02-15T04:10:40;6.22;;;2.03;;
71104;SDS011;58760;48.716;8.962;2024-02-15T04:13:06;6.60;;;2.10;;
71104;SDS011;58760;48.716;8.962;2024-02-15T04:15:32;5.20;;;1.90;;
71104;SDS011;58760;48.716;8.962;2024-02-15T04:17:59;6.65;;;2.30;;
71104;SDS011;58760;48.716;8.962;2024-02-15T04:20:25;6.88;;;1.90;;
71104;SDS011;58760;48.716;8.962;2024-02-15T04:22:51;4.53;;;1.80;;
71104;SDS011;58760;48.716;8.962;2024-02-15T04:25:17;7.45;;;2.22;;
71104;SDS011;58760;48.716;8.962;2024-02-15T04:27:45;5.53;;;1.77;;
71104;SDS011;58760;48.716;8.962;2024-02-15T04:30:12;4.50;;;1.60;;
71104;SDS011;58760;48.716;8.962;2024-02-15T04:32:38;7.20;;;2.03;;
71104;SDS011;58760;48.716;8.962;2024-02-15T04:35:03;3.97;;;1.92;;
71104;SDS011;58760;48.716;8.962;2024-02-15T04:37:30;4.53;;;1.80;;
71104;SDS011;58760;48.716;8.962;2024-02-15T04:39:57;6.25;;;2.13;;
71104;SDS011;58760;48.716;8.962;2024-02-15T04:42:23;5.55;;;1.90;;
71104;SDS011;58760;48.716;8.962;2024-02-15T04:44:52;5.25;;;1.85;;
71104;SDS011;58760;48.716;8.962;2024-02-15T04:47:19;5.22;;;1.90;;
71104;SDS011;58760;48.716;8.962;2024-02-15T04:49:45;4.50;;;1.90;;
71104;SDS011;58760;48.716;8.962;2024-02-15T04:52:11;5.85;;;2.10;;
71104;SDS011;58760;48.716;8.962;2024-02-15T04:54:36;5.32;;;2.00;;
71104;SDS011;58760;48.716;8.962;2024-02-15T04:57:02;5.25;;;2.05;;
71104;SDS011;58760;48.716;8.962;2024-02-15T04:59:27;5.22;;;2.15;;
71104;SDS011;58760;48.716;8.962;2024-02-15T05:01:54;4.32;;;1.83;;
71104;SDS011;58760;48.716;8.962;2024-02-15T05:04:21;6.40;;;2.05;;
71104;SDS011;58760;48.716;8.962;2024-02-15T05:06:47;5.30;;;2.17;;
71104;SDS011;58760;48.716;8.962;2024-02-15T05:09:13;5.10;;;2.03;;
71104;SDS011;58760;48.716;8.962;2024-02-15T05:11:39;5.30;;;1.98;;
71104;SDS011;58760;48.716;8.962;2024-02-15T05:14:15;5.35;;;2.15;;
71104;SDS011;58760;48.716;8.962;2024-02-15T05:16:47;5.65;;;2.00;;
71104;SDS011;58760;48.716;8.962;2024-02-15T05:19:17;4.95;;;2.05;;
71104;SDS011;58760;48.716;8.962;2024-02-15T05:21:43;5.85;;;2.22;;
71104;SDS011;58760;48.716;8.962;2024-02-15T05:24:11;5.90;;;1.90;;
71104;SDS011;58760;48.716;8.962;2024-02-15T05:26:40;6.63;;;2.05;;
71104;SDS011;58760;48.716;8.962;2024-02-15T05:29:08;6.50;;;2.30;;
71104;SDS011;58760;48.716;8.962;2024-02-15T05:31:35;5.53;;;1.90;;
71104;SDS011;58760;48.716;8.962;2024-02-15T05:34:02;6.50;;;2.17;;
71104;SDS011;58760;48.716;8.962;2024-02-15T05:36:30;5.32;;;1.95;;
71104;SDS011;58760;48.716;8.962;2024-02-15T05:38:56;4.93;;;2.00;;
71104;SDS011;58760;48.716;8.962;2024-02-15T05:41:22;7.15;;;2.10;;
71104;SDS011;58760;48.716;8.962;2024-02-15T05:43:48;5.72;;;2.15;;
71104;SDS011;58760;48.716;8.962;2024-02-15T05:46:13;4.70;;;2.20;;
71104;SDS011;58760;48.716;8.962;2024-02-15T05:48:40;6.63;;;2.40;;
71104;SDS011;58760;48.716;8.962;2024-02-15T05:51:06;4.93;;;2.00;;
71104;SDS011;58760;48.716;8.962;2024-02-15T05:53:33;4.85;;;2.03;;
71104;SDS011;58760;48.716;8.962;2024-02-15T05:56:01;7.57;;;2.55;;
71104;SDS011;58760;48.716;8.962;2024-02-15T05:58:29;5.88;;;2.40;;
71104;SDS011;58760;48.716;8.962;2024-02-15T06:00:55;6.50;;;2.55;;
71104;SDS011;58760;48.716;8.962;2024-02-15T06:03:26;6.35;;;2.13;;
71104;SDS011;58760;48.716;8.962;2024-02-15T06:05:54;6.30;;;2.47;;
71104;SDS011;58760;48.716;8.962;2024-02-15T06:08:26;7.22;;;2.00;;
71104;SDS011;58760;48.716;8.962;2024-02-15T06:10:52;6.68;;;2.40;;
71104;SDS011;58760;48.716;8.962;2024-02-15T06:13:18;5.82;;;2.53;;
71104;SDS011;58760;48.716;8.962;2024-02-15T06:15:45;6.88;;;2.40;;
71104;SDS011;58760;48.716;8.962;2024-02-15T06:18:14;6.88;;;2.47;;
71104;SDS011;58760;48.716;8.962;2024-02-15T06:20:41;4.85;;;2.25;;
71104;SDS011;58760;48.716;8.962;2024-02-15T06:23:08;7.53;;;2.47;;
71104;SDS011;58760;48.716;8.962;2024-02-15T06:25:36;6.10;;;2.13;;
71104;SDS011;58760;48.716;8.962;2024-02-15T06:28:02;9.75;;;2.30;;
71104;SDS011;58760;48.716;8.962;2024-02-15T06:30:38;8.00;;;2.22;;
71104;SDS011;58760;48.716;8.962;2024-02-15T06:33:27;5.85;;;2.17;;
71104;SDS011;58760;48.716;8.962;2024-02-15T06:36:11;6.93;;;2.42;;
71104;SDS011;58760;48.716;8.962;2024-02-15T06:38:55;5.10;;;2.47;;
71104;SDS011;58760;48.716;8.962;2024-02-15T06:41:39;5.47;;;2.30;;
71104;SDS011;58760;48.716;8.962;2024-02-15T06:44:07;6.80;;;2.20;;
71104;SDS011;58760;48.716;8.962;2024-02-15T06:46:33;6.78;;;2.33;;
71104;SDS011;58760;48.716;8.962;2024-02-15T06:48:59;4.43;;;1.80;;
71104;SDS011;58760;48.716;8.962;2024-02-15T06:51:28;7.25;;;2.17;;
71104;SDS011;58760;48.716;8.962;2024-02-15T06:53:54;6.35;;;2.10;;
71104;SDS011;58760;48.716;8.962;2024-02-15T06:56:21;5.55;;;2.63;;
71104;SDS011;58760;48.716;8.962;2024-02-15T06:58:47;7.35;;;2.50;;
71104;SDS011;58760;48.716;8.962;2024-02-15T07:01:13;6.00;;;2.20;;
71104;SDS011;58760;48.716;8.962;2024-02-15T07:03:41;5.25;;;2.10;;
71104;SDS011;58760;48.716;8.962;2024-02-15T07:06:09;5.38;;;2.50;;
71104;SDS011;58760;48.716;8.962;2024-02-15T07:08:34;8.05;;;2.42;;
71104;SDS011;58760;48.716;8.962;2024-02-15T07:11:00;5.47;;;2.42;;
71104;SDS011;58760;48.716;8.962;2024-02-15T07:13:29;7.32;;;2.97;;
71104;SDS011;58760;48.716;8.962;2024-02-15T07:15:54;5.72;;;2.40;;
71104;SDS011;58760;48.716;8.962;2024-02-15T07:18:21;5.43;;;2.20;;
71104;SDS011;58760;48.716;8.962;2024-02-15T07:20:47;8.05;;;2.53;;
71104;SDS011;58760;48.716;8.962;2024-02-15T07:23:13;5.47;;;2.47;;
71104;SDS011;58760;48.716;8.962;2024-02-15T07:25:39;9.43;;;2.90;;
71104;SDS011;58760;48.716;8.962;2024-02-15T07:28:06;7.90;;;3.05;;
71104;SDS011;58760;48.716;8.962;2024-02-15T07:30:33;6.60;;;2.70;;
71104;SDS011;58760;48.716;8.962;2024-02-15T07:32:59;5.25;;;2.53;;
71104;SDS011;58760;48.716;8.962;2024-02-15T07:35:25;6.35;;;2.80;;
71104;SDS011;58760;48.716;8.962;2024-02-15T07:37:51;8.63;;;3.00;;
71104;SDS011;58760;48.716;8.962;2024-02-15T07:40:18;6.97;;;3.00;;
71104;SDS011;58760;48.716;8.962;2024-02-15T07:42:47;8.32;;;3.00;;
71104;SDS011;58760;48.716;8.962;2024-02-15T07:45:12;10.32;;;3.53;;
71104;SDS011;58760;48.716;8.962;2024-02-15T07:47:38;9.15;;;3.70;;
71104;SDS011;58760;48.716;8.962;2024-02-15T07:50:04;8.13;;;3.33;;
71104;SDS011;58760;48.716;8.962;2024-02-15T07:52:30;8.13;;;3.17;;
71104;SDS011;58760;48.716;8.962;2024-02-15T07:54:56;7.90;;;3.72;;
71104;SDS011;58760;48.716;8.962;2024-02-15T07:57:21;9.68;;;3.42;;
71104;SDS011;58760;48.716;8.962;2024-02-15T07:59:48;9.02;;;3.60;;
71104;SDS011;58760;48.716;8.962;2024-02-15T08:04:43;8.80;;;3.20;;
71104;SDS011;58760;48.716;8.962;2024-02-15T08:07:09;8.00;;;3.13;;
71104;SDS011;58760;48.716;8.962;2024-02-15T08:09:39;8.43;;;3.33;;
71104;SDS011;58760;48.716;8.962;2024-02-15T08:12:04;7.65;;;2.90;;
71104;SDS011;58760;48.716;8.962;2024-02-15T08:14:30;8.55;;;3.15;;
71104;SDS011;58760;48.716;8.962;2024-02-15T08:16:56;10.23;;;3.38;;
71104;SDS011;58760;48.716;8.962;2024-02-15T08:19:22;8.02;;;3.13;;
71104;SDS011;58760;48.716;8.962;2024-02-15T08:21:48;8.02;;;3.13;;
71104;SDS011;58760;48.716;8.962;2024-02-15T08:24:15;8.32;;;3.30;;
71104;SDS011;58760;48.716;8.962;2024-02-15T08:26:42;14.68;;;4.05;;
71104;SDS011;58760;48.716;8.962;2024-02-15T08:29:08;8.02;;;3.05;;
71104;SDS011;58760;48.716;8.962;2024-02-15T08:31:38;7.32;;;3.22;;
71104;SDS011;58760;48.716;8.962;2024-02-15T08:34:04;8.65;;;3.10;;
71104;SDS011;58760;48.716;8.962;2024-02-15T08:36:31;10.07;;;3.88;;
71104;SDS011;58760;48.716;8.962;2024-02-15T08:38:56;6.68;;;2.90;;
71104;SDS011;58760;48.716;8.962;2024-02-15T08:41:22;9.18;;;3.67;;
71104;SDS011;58760;48.716;8.962;2024-02-15T08:43:52;10.20;;;3.25;;
71104;SDS011;58760;48.716;8.962;2024-02-15T08:46:18;9.48;;;3.63;;
71104;SDS011;58760;48.716;8.962;2024-02-15T08:48:44;9.20;;;3.63;;
71104;SDS011;58760;48.716;8.962;2024-02-15T08:51:12;20.10;;;4.13;;
71104;SDS011;58760;48.716;8.962;2024-02-15T08:53:37;10.63;;;3.40;;
71104;SDS011;58760;48.716;8.962;2024-02-15T08:56:06;11.68;;;3.47;;
71104;SDS011;58760;48.716;8.962;2024-02-15T08:58:34;8.52;;;3.90;;
71104;SDS011;58760;48.716;8.962;2024-02-15T09:01:00;10.15;;;4.00;;
71104;SDS011;58760;48.716;8.962;2024-02-15T09:03:25;8.90;;;4.20;;
71104;SDS011;58760;48.716;8.962;2024-02-15T09:05:50;6.75;;;3.35;;
71104;SDS011;58760;48.716;8.962;2024-02-15T09:08:16;9.38;;;3.88;;
71104;SDS011;58760;48.716;8.962;2024-02-15T09:10:46;7.38;;;3.15;;
71104;SDS011;58760;48.716;8.962;2024-02-15T09:13:12;8.98;;;3.30;;
71104;SDS011;58760;48.716;8.962;2024-02-15T09:15:37;9.02;;;3.50;;
71104;SDS011;58760;48.716;8.962;2024-02-15T09:18:04;9.52;;;3.80;;
71104;SDS011;58760;48.716;8.962;2024-02-15T09:20:30;9.55;;;3.45;;
71104;SDS011;58760;48.716;8.962;2024-02-15T09:22:56;8.10;;;3.80;;
71104;SDS011;58760;48.716;8.962;2024-02-15T09:25:22;8.02;;;3.10;;
71104;SDS011;58760;48.716;8.962;2024-02-15T09:27:49;11.25;;;3.58;;
71104;SDS011;58760;48.716;8.962;2024-02-15T09:30:15;7.07;;;3.45;;
71104;SDS011;58760;48.716;8.962;2024-02-15T09:32:42;10.35;;;3.33;;
71104;SDS011;58760;48.716;8.962;2024-02-15T09:35:10;7.68;;;2.92;;
71104;SDS011;58760;48.716;8.962;2024-02-15T09:37:37;9.00;;;3.25;;
71104;SDS011;58760;48.716;8.962;2024-02-15T09:40:12;8.13;;;2.83;;
71104;SDS011;58760;48.716;8.962;2024-02-15T09:42:38;8.32;;;3.13;;
71104;SDS011;58760;48.716;8.962;2024-02-15T09:47:37;7.63;;;2.53;;
71104;SDS011;58760;48.716;8.962;2024-02-15T09:50:10;12.27;;;3.00;;
71104;SDS011;58760;48.716;8.962;2024-02-15T09:52:42;6.07;;;2.63;;
71104;SDS011;58760;48.716;8.962;2024-02-15T09:55:11;8.60;;;2.35;;
71104;SDS011;58760;48.716;8.962;2024-02-15T09:57:41;8.52;;;2.92;;
71104;SDS011;58760;48.716;8.962;2024-02-15T10:00:08;6.03;;;2.15;;
71104;SDS011;58760;48.716;8.962;2024-02-15T10:02:38;6.15;;;2.38;;
71104;SDS011;58760;48.716;8.962;2024-02-15T10:05:05;8.00;;;2.63;;
71104;SDS011;58760;48.716;8.962;2024-02-15T10:07:32;8.05;;;2.60;;
71104;SDS011;58760;48.716;8.962;2024-02-15T10:09:57;5.80;;;2.10;;
71104;SDS011;58760;48.716;8.962;2024-02-15T10:12:41;5.95;;;2.30;;
71104;SDS011;58760;48.716;8.962;2024-02-15T10:15:08;7.68;;;2.45;;
71104;SDS011;58760;48.716;8.962;2024-02-15T10:17:34;6.70;;;2.47;;
71104;SDS011;58760;48.716;8.962;2024-02-15T10:20:05;6.28;;;2.58;;
71104;SDS011;58760;48.716;8.962;2024-02-15T10:22:31;5.80;;;2.30;;
71104;SDS011;58760;48.716;8.962;2024-02-15T10:25:10;5.70;;;2.35;;
71104;SDS011;58760;48.716;8.962;2024-02-15T10:27:36;6.20;;;2.20;;
71104;SDS011;58760;48.716;8.962;2024-02-15T10:30:18;7.53;;;2.20;;
71104;SDS011;58760;48.716;8.962;2024-02-15T10:32:47;7.07;;;2.10;;
71104;SDS011;58760;48.716;8.962;2024-02-15T10:35:20;7.55;;;2.30;;
71104;SDS011;58760;48.716;8.962;2024-02-15T10:37:47;8.27;;;2.35;;
71104;SDS011;58760;48.716;8.962;2024-02-15T10:40:17;7.43;;;2.30;;
71104;SDS011;58760;48.716;8.962;2024-02-15T10:42:43;4.78;;;1.98;;
71104;SDS011;58760;48.716;8.962;2024-02-15T10:45:12;7.50;;;2.00;;
71104;SDS011;58760;48.716;8.962;2024-02-15T10:47:43;6.38;;;1.80;;
71104;SDS011;58760;48.716;8.962;2024-02-15T10:50:11;6.20;;;2.13;;
71104;SDS011;58760;48.716;8.962;2024-02-15T10:52:37;4.95;;;1.63;;
71104;SDS011;58760;48.716;8.962;2024-02-15T10:55:13;5.40;;;1.88;;
71104;SDS011;58760;48.716;8.962;2024-02-15T10:57:46;4.10;;;1.63;;
71104;SDS011;58760;48.716;8.962;2024-02-15T11:00:16;5.07;;;1.88;;
71104;SDS011;58760;48.716;8.962;2024-02-15T11:03:07;5.47;;;1.75;;
71104;SDS011;58760;48.716;8.962;2024-02-15T11:05:36;6.20;;;1.67;;
71104;SDS011;58760;48.716;8.962;2024-02-15T11:08:05;5.00;;;1.63;;
71104;SDS011;58760;48.716;8.962;2024-02-15T11:10:33;6.88;;;1.70;;
71104;SDS011;58760;48.716;8.962;2024-02-15T11:13:01;4.80;;;1.30;;
71104;SDS011;58760;48.716;8.962;2024-02-15T11:15:46;4.60;;;1.38;;
71104;SDS011;58760;48.716;8.962;2024-02-15T11:18:41;4.05;;;1.00;;
71104;SDS011;58760;48.716;8.962;2024-02-15T11:27:00;2.55;;;0.80;;
71104;SDS011;58760;48.716;8.962;2024-02-15T11:35:09;5.55;;;1.00;;
71104;SDS011;58760;48.716;8.962;2024-02-15T11:42:57;3.72;;;0.80;;
71104;SDS011;58760;48.716;8.962;2024-02-15T11:45:24;3.20;;;0.85;;
71104;SDS011;58760;48.716;8.962;2024-02-15T11:50:19;3.83;;;0.82;;
71104;SDS011;58760;48.716;8.962;2024-02-15T11:52:46;9.75;;;1.30;;
71104;SDS011;58760;48.716;8.962;2024-02-15T11:55:20;7.32;;;1.05;;
71104;SDS011;58760;48.716;8.962;2024-02-15T11:57:59;4.47;;;1.15;;
71104;SDS011;58760;48.716;8.962;2024-02-15T12:00:35;4.95;;;1.00;;
71104;SDS011;58760;48.716;8.962;2024-02-15T12:03:22;3.95;;;0.70;;
71104;SDS011;58760;48.716;8.962;2024-02-15T12:06:07;3.25;;;1.02;;
71104;SDS011;58760;48.716;8.962;2024-02-15T12:08:52;4.93;;;1.45;;
71104;SDS011;58760;48.716;8.962;2024-02-15T12:11:37;2.45;;;0.70;;
71104;SDS011;58760;48.716;8.962;2024-02-15T12:14:22;3.50;;;0.90;;
71104;SDS011;58760;48.716;8.962;2024-02-15T12:17:06;4.90;;;0.85;;
71104;SDS011;58760;48.716;8.962;2024-02-15T12:19:53;2.05;;;0.85;;
71104;SDS011;58760;48.716;8.962;2024-02-15T12:22:27;4.32;;;1.00;;
71104;SDS011;58760;48.716;8.962;2024-02-15T12:24:57;4.05;;;0.90;;
71104;SDS011;58760;48.716;8.962;2024-02-15T12:27:23;5.20;;;1.00;;
71104;SDS011;58760;48.716;8.962;2024-02-15T12:29:57;3.03;;;0.98;;
71104;SDS011;58760;48.716;8.962;2024-02-15T12:32:26;3.40;;;0.90;;
71104;SDS011;58760;48.716;8.962;2024-02-15T12:34:53;4.10;;;1.10;;
71104;SDS011;58760;48.716;8.962;2024-02-15T12:37:35;4.60;;;1.02;;
71104;SDS011;58760;48.716;8.962;2024-02-15T12:40:10;3.40;;;1.00;;
71104;SDS011;58760;48.716;8.962;2024-02-15T12:42:41;4.82;;;1.20;;
71104;SDS011;58760;48.716;8.962;2024-02-15T12:45:14;3.30;;;1.00;;
71104;SDS011;58760;48.716;8.962;2024-02-15T12:47:43;2.33;;;0.80;;
71104;SDS011;58760;48.716;8.962;2024-02-15T12:50:20;3.22;;;0.90;;
71104;SDS011;58760;48.716;8.962;2024-02-15T12:52:47;3.00;;;0.90;;
71104;SDS011;58760;48.716;8.962;2024-02-15T12:55:18;4.22;;;1.00;;
71104;SDS011;58760;48.716;8.962;2024-02-15T12:57:48;6.15;;;1.33;;
71104;SDS011;58760;48.716;8.962;2024-02-15T13:00:20;7.80;;;1.40;;
71104;SDS011;58760;48.716;8.962;2024-02-15T13:02:54;5.32;;;1.15;;
71104;SDS011;58760;48.716;8.962;2024-02-15T13:05:21;5.32;;;1.30;;
71104;SDS011;58760;48.716;8.962;2024-02-15T13:07:53;4.97;;;1.20;;
71104;SDS011;58760;48.716;8.962;2024-02-15T13:10:20;3.63;;;1.20;;
71104;SDS011;58760;48.716;8.962;2024-02-15T13:12:47;3.20;;;1.08;;
71104;SDS011;58760;48.716;8.962;2024-02-15T13:15:13;9.27;;;1.30;;
71104;SDS011;58760;48.716;8.962;2024-02-15T13:17:43;5.45;;;1.55;;
71104;SDS011;58760;48.716;8.962;2024-02-15T13:20:16;5.00;;;1.40;;
71104;SDS011;58760;48.716;8.962;2024-02-15T13:22:45;5.82;;;1.20;;
71104;SDS011;58760;48.716;8.962;2024-02-15T13:25:17;5.50;;;1.48;;
71104;SDS011;58760;48.716;8.962;2024-02-15T13:27:46;3.95;;;1.17;;
71104;SDS011;58760;48.716;8.962;2024-02-15T13:32:38;4.38;;;1.25;;
71104;SDS011;58760;48.716;8.962;2024-02-15T13:35:06;7.45;;;1.30;;
71104;SDS011;58760;48.716;8.962;2024-02-15T13:37:43;6.50;;;1.38;;
71104;SDS011;58760;48.716;8.962;2024-02-15T13:40:12;4.15;;;1.13;;
71104;SDS011;58760;48.716;8.962;2024-02-15T13:42:44;5.97;;;1.40;;
71104;SDS011;58760;48.716;8.962;2024-02-15T13:45:27;3.50;;;1.13;;
71104;SDS011;58760;48.716;8.962;2024-02-15T13:48:02;3.65;;;1.30;;
71104;SDS011;58760;48.716;8.962;2024-02-15T13:50:30;5.78;;;1.42;;
71104;SDS011;58760;48.716;8.962;2024-02-15T13:52:56;4.13;;;1.15;;
71104;SDS011;58760;48.716;8.962;2024-02-15T13:55:23;6.30;;;1.50;;
71104;SDS011;58760;48.716;8.962;2024-02-15T13:57:52;4.75;;;1.35;;
71104;SDS011;58760;48.716;8.962;2024-02-15T14:00:19;4.25;;;1.38;;
71104;SDS011;58760;48.716;8.962;2024-02-15T14:05:18;3.97;;;1.30;;
71104;SDS011;58760;48.716;8.962;2024-02-15T14:07:48;3.85;;;1.25;;
71104;SDS011;58760;48.716;8.962;2024-02-15T14:10:15;7.75;;;1.60;;
71104;SDS011;58760;48.716;8.962;2024-02-15T14:12:45;4.97;;;1.38;;
71104;SDS011;58760;48.716;8.962;2024-02-15T14:15:11;6.25;;;1.55;;
71104;SDS011;58760;48.716;8.962;2024-02-15T14:17:37;4.05;;;1.20;;
71104;SDS011;58760;48.716;8.962;2024-02-15T14:20:03;5.05;;;1.38;;
71104;SDS011;58760;48.716;8.962;2024-02-15T14:22:34;4.80;;;1.50;;
71104;SDS011;58760;48.716;8.962;2024-02-15T14:27:25;6.20;;;1.77;;
71104;SDS011;58760;48.716;8.962;2024-02-15T14:29:51;7.35;;;1.60;;
71104;SDS011;58760;48.716;8.962;2024-02-15T14:32:35;5.32;;;1.77;;
71104;SDS011;58760;48.716;8.962;2024-02-15T14:35:19;3.95;;;1.58;;
71104;SDS011;58760;48.716;8.962;2024-02-15T14:37:46;5.30;;;1.60;;
71104;SDS011;58760;48.716;8.962;2024-02-15T14:40:12;4.93;;;1.55;;
71104;SDS011;58760;48.716;8.962;2024-02-15T14:42:42;4.43;;;1.67;;
71104;SDS011;58760;48.716;8.962;2024-02-15T14:45:11;3.85;;;1.40;;
71104;SDS011;58760;48.716;8.962;2024-02-15T14:47:37;7.18;;;1.63;;
71104;SDS011;58760;48.716;8.962;2024-02-15T14:50:03;8.20;;;1.50;;
71104;SDS011;58760;48.716;8.962;2024-02-15T14:52:33;8.88;;;1.63;;
71104;SDS011;58760;48.716;8.962;2024-02-15T14:54:59;6.25;;;1.25;;
71104;SDS011;58760;48.716;8.962;2024-02-15T14:57:24;5.60;;;1.83;;
71104;SDS011;58760;48.716;8.962;2024-02-15T14:59:50;12.52;;;2.35;;
71104;SDS011;58760;48.716;8.962;2024-02-15T15:02:15;8.20;;;2.08;;
71104;SDS011;58760;48.716;8.962;2024-02-15T15:04:41;6.63;;;1.58;;
71104;SDS011;58760;48.716;8.962;2024-02-15T15:07:23;4.88;;;1.27;;
71104;SDS011;58760;48.716;8.962;2024-02-15T15:10:07;6.80;;;1.70;;
71104;SDS011;58760;48.716;8.962;2024-02-15T15:12:51;4.30;;;1.40;;
71104;SDS011;58760;48.716;8.962;2024-02-15T15:15:16;7.45;;;1.67;;
71104;SDS011;58760;48.716;8.962;2024-02-15T15:17:44;7.78;;;2.00;;
71104;SDS011;58760;48.716;8.962;2024-02-15T15:20:24;11.90;;;1.85;;
71104;SDS011;58760;48.716;8.962;2024-02-15T15:22:51;15.32;;;2.20;;
71104;SDS011;58760;48.716;8.962;2024-02-15T15:25:16;6.22;;;1.90;;
71104;SDS011;58760;48.716;8.962;2024-02-15T15:27:42;7.75;;;1.77;;
71104;SDS011;58760;48.716;8.962;2024-02-15T15:30:07;6.30;;;1.65;;
71104;SDS011;58760;48.716;8.962;2024-02-15T15:32:35;7.35;;;1.90;;
71104;SDS011;58760;48.716;8.962;2024-02-15T15:35:01;6.45;;;1.48;;